Time;durP1;ratioP1;P1;durP2;ratioP2;P2;SDS_P1;SDS_P2;PMS_P1;PMS_P2;Temp;Humidity;BMP_temperature;BMP_pressure;BME280_temperature;BME280_humidity;BME280_pressure;Samples;Min_cycle;Max_cycle;Signal;HPM_P1;HPM_P2
2023/01/03 00:01:47;;;;;;;0.60;0.60;;;10.00;77.60;;;9.11;65.35;95688.41;5015334;28;20193;-46
2023/01/03 00:04:15;;;;;;;0.70;0.70;;;10.00;77.70;;;9.10;65.44;95682.31;5014152;28;20236;-47
2023/01/03 00:06:50;;;;;;;0.90;0.90;;;10.00;77.90;;;9.12;65.45;95692.66;5015089;28;20258;-46
2023/01/03 00:09:22;;;;;;;0.70;0.70;;;9.90;79.10;;;9.12;65.49;95685.59;5014860;28;20189;-46
2023/01/03 00:14:42;;;;;;;0.70;0.70;;;10.00;77.70;;;9.16;65.13;95693.94;5015191;28;20199;-47
2023/01/03 00:17:11;;;;;;;0.70;0.70;;;9.90;79.00;;;9.22;65.06;95693.28;5015153;28;20200;-47
2023/01/03 00:19:42;;;;;;;0.70;0.70;;;9.90;79.10;;;9.27;65.30;95695.44;5018624;28;20189;-46
2023/01/03 00:22:12;;;;;;;0.63;0.63;;;10.00;78.00;;;9.29;64.86;95699.50;5018786;28;20189;-46
2023/01/03 00:24:40;;;;;;;0.70;0.70;;;10.00;77.70;;;9.34;64.22;95706.03;5018971;28;20224;-46
2023/01/03 00:27:08;;;;;;;0.60;0.60;;;10.00;77.50;;;9.38;64.80;95700.31;5019230;28;20259;-47
2023/01/03 00:29:36;;;;;;;0.70;0.70;;;10.10;77.80;;;9.42;64.80;95703.44;5018445;28;20201;-47
2023/01/03 00:32:05;;;;;;;0.90;0.90;;;10.10;77.70;;;9.42;64.30;95696.41;5018631;28;20621;-46
2023/01/03 00:34:32;;;;;;;0.70;0.70;;;10.10;77.50;;;9.45;64.72;95701.31;5018799;28;20189;-47
2023/01/03 00:37:00;;;;;;;0.70;0.70;;;10.20;77.80;;;9.47;64.50;95716.84;5018424;28;20196;-46
2023/01/03 00:39:27;;;;;;;0.70;0.70;;;10.20;77.70;;;9.49;64.47;95717.50;5018250;28;20305;-46
2023/01/03 00:41:54;;;;;;;0.90;0.90;;;10.30;77.70;;;9.52;64.19;95717.19;5018239;28;20295;-36
2023/01/03 00:44:21;;;;;;;0.70;0.70;;;10.20;77.50;;;9.57;64.52;95714.03;5018316;28;20189;-36
2023/01/03 00:46:48;;;;;;;0.70;0.70;;;10.30;77.60;;;9.58;64.29;95721.75;5018169;28;20193;-36
2023/01/03 00:49:15;;;;;;;0.70;0.70;;;10.30;77.50;;;9.59;64.01;95727.81;5017455;28;20204;-36
2023/01/03 00:51:43;;;;;;;0.70;0.70;;;10.30;77.50;;;9.60;63.86;95729.44;5018488;28;20279;-36
2023/01/03 00:54:12;;;;;;;0.80;0.80;;;10.30;77.10;;;9.63;64.02;95730.91;5018086;28;20636;-36
2023/01/03 00:56:44;;;;;;;0.70;0.70;;;10.30;77.30;;;9.65;63.91;95729.75;5018330;28;20255;-36
2023/01/03 00:59:14;;;;;;;0.80;0.80;;;10.40;77.20;;;9.67;63.67;95737.47;5018059;28;20181;-36
2023/01/03 01:01:48;;;;;;;0.80;0.80;;;10.40;77.20;;;9.66;63.80;95741.06;5018044;28;20620;-36
2023/01/03 01:04:28;;;;;;;0.70;0.70;;;10.40;77.00;;;9.65;63.88;95748.09;5017973;28;20612;-36
2023/01/03 01:07:02;;;;;;;0.80;0.80;;;10.40;77.00;;;9.58;63.96;95737.47;5017929;28;20609;-36
2023/01/03 01:09:33;;;;;;;0.70;0.70;;;10.40;77.00;;;9.55;64.20;95734.38;5017762;28;20177;-36
2023/01/03 01:12:01;;;;;;;0.70;0.70;;;10.40;77.00;;;9.53;63.83;95734.53;5017769;28;20189;-36
2023/01/03 01:14:32;;;;;;;0.70;0.70;;;10.30;76.80;;;9.52;64.23;95740.75;5033341;28;20207;-36
2023/01/03 01:17:05;;;;;;;0.80;0.80;;;10.30;77.00;;;9.54;64.40;95744.00;5017928;28;20181;-36
2023/01/03 01:19:42;;;;;;;0.77;0.77;;;10.30;77.10;;;9.52;64.71;95740.75;5017616;28;20612;-36
2023/01/03 01:22:10;;;;;;;0.70;0.70;;;10.40;77.20;;;9.53;64.65;95752.03;5017696;28;20173;-36
2023/01/03 01:24:38;;;;;;;0.80;0.80;;;10.30;77.30;;;9.51;64.52;95738.28;5016737;28;20219;-36
2023/01/03 01:27:05;;;;;;;0.73;0.73;;;10.30;77.30;;;9.48;64.41;95734.19;5017483;28;20197;-36
2023/01/03 01:29:32;;;;;;;0.70;0.70;;;10.30;77.30;;;9.48;64.34;95736.00;5016822;28;20748;-36
2023/01/03 01:32:00;;;;;;;0.70;0.70;;;10.30;77.10;;;9.48;63.85;95739.44;5017463;28;20198;-36
2023/01/03 01:34:28;;;;;;;0.70;0.70;;;10.30;76.90;;;9.52;64.03;95746.00;5017571;28;20266;-37
2023/01/03 01:36:55;;;;;;;0.70;0.70;;;10.20;77.00;;;9.56;64.13;95746.47;5017411;28;20220;-39
2023/01/03 01:39:25;;;;;;;0.80;0.80;;;10.30;77.30;;;9.57;64.15;95746.31;5017394;28;20288;-37
2023/01/03 01:44:52;;;;;;;0.70;0.70;;;10.30;77.20;;;9.58;64.29;95747.13;5017522;28;20284;-36
2023/01/03 01:47:59;;;;;;;0.75;0.75;;;10.30;77.10;;;9.54;64.37;95745.81;5017081;28;20223;-36
2023/01/03 01:50:41;;;;;;;0.70;0.70;;;10.40;77.00;;;9.51;64.35;95749.59;5016948;28;20285;-37
2023/01/03 01:53:32;;;;;;;0.80;0.80;;;10.40;77.10;;;9.49;64.42;95754.16;5017204;28;20185;-36
2023/01/03 01:56:05;;;;;;;0.77;0.77;;;10.30;77.00;;;9.48;64.42;95754.34;5016992;28;20580;-36
2023/01/03 01:58:37;;;;;;;0.70;0.70;;;10.30;77.10;;;9.47;64.44;95755.31;5016170;28;20169;-37
2023/01/03 02:01:11;;;;;;;0.73;0.73;;;10.30;77.10;;;9.45;64.34;95752.88;5016090;28;20177;-36
2023/01/03 02:03:42;;;;;;;0.70;0.70;;;10.30;77.10;;;9.45;64.54;95761.53;5016881;28;20177;-36
2023/01/03 02:06:13;;;;;;;0.80;0.80;;;10.30;77.20;;;9.44;64.54;95753.84;5016148;28;20192;-37
2023/01/03 02:08:40;;;;;;;0.70;0.70;;;10.30;77.10;;;9.43;64.51;95757.44;5016038;28;20201;-36
2023/01/03 02:11:44;;;;;;;0.80;0.80;;;10.30;77.10;;;9.40;64.28;95770.88;5016936;28;20193;-36
2023/01/03 02:14:55;;;;;;;0.60;0.60;;;10.30;77.10;;;9.33;64.58;95769.88;5016605;28;20547;-36
2023/01/03 02:18:01;;;;;;;0.80;0.80;;;10.20;77.00;;;9.29;64.85;95762.34;5016735;28;20491;-36
2023/01/03 02:21:02;;;;;;;0.70;0.70;;;10.20;77.10;;;9.25;64.82;95766.28;5015574;28;20208;-36
2023/01/03 02:24:05;;;;;;;0.70;0.70;;;10.20;77.20;;;9.23;65.04;95768.22;5016475;28;20197;-36
2023/01/03 02:27:02;;;;;;;0.70;0.70;;;10.10;77.10;;;9.19;64.93;95763.47;5016493;28;20206;-36
2023/01/03 02:30:24;;;;;;;0.80;0.80;;;10.10;77.30;;;9.11;65.25;95767.72;5016209;28;20517;-36
2023/01/03 02:33:17;;;;;;;0.80;0.80;;;10.10;77.30;;;9.06;65.21;95761.34;5016358;28;20284;-36
2023/01/03 02:36:26;;;;;;;0.70;0.70;;;10.10;77.20;;;8.97;65.29;95768.34;5015565;28;20203;-36
2023/01/03 02:39:36;;;;;;;0.70;0.70;;;10.00;77.20;;;8.90;65.27;95768.19;5016060;28;20208;-36
2023/01/03 02:45:47;;;;;;;0.70;0.70;;;9.90;78.50;;;8.79;65.80;95771.09;5015433;28;20260;-36
2023/01/03 02:48:53;;;;;;;0.70;0.70;;;9.80;78.70;;;8.80;66.05;95767.47;5015276;28;20204;-36
2023/01/03 02:51:36;;;;;;;0.75;0.75;;;9.80;78.90;;;8.83;65.94;95769.78;5015044;28;20690;-36
2023/01/03 02:54:08;;;;;;;0.80;0.80;;;9.80;79.10;;;8.88;66.12;95770.13;5015186;28;20178;-36
2023/01/03 02:57:04;;;;;;;0.70;0.70;;;9.80;79.30;;;8.95;65.90;95778.97;5015141;28;20185;-36
2023/01/03 02:59:49;;;;;;;0.70;0.70;;;9.80;79.30;;;9.00;66.12;95770.66;5015095;28;20193;-36
2023/01/03 03:02:19;;;;;;;0.70;0.70;;;9.80;79.40;;;9.06;66.07;95777.84;5015864;28;20177;-36
2023/01/03 03:04:51;;;;;;;0.80;0.80;;;9.80;79.40;;;9.11;65.85;95770.34;5015970;28;20269;-37
2023/01/03 03:07:31;;;;;;;0.90;0.90;;;9.80;79.40;;;9.17;65.90;95770.66;5015879;28;20584;-36
2023/01/03 03:16:01;;;;;;;0.70;0.70;;;10.00;78.10;;;9.19;65.83;95787.88;4974991;28;20254;-36
2023/01/03 03:18:53;;;;;;;0.73;0.73;;;10.00;78.00;;;9.22;65.88;95787.53;5009858;28;20220;-36
2023/01/03 03:30:01;;;;;;;0.70;0.70;;;10.10;78.10;;;9.39;65.55;95796.22;5014705;28;20193;-36
2023/01/03 03:32:32;;;;;;;0.90;0.90;;;10.10;78.10;;;9.47;65.55;95798.00;5015322;28;20263;-36
2023/01/03 03:35:03;;;;;;;0.70;0.70;;;10.10;78.10;;;9.51;65.37;95795.88;5015328;28;20199;-36
2023/01/03 03:37:33;;;;;;;0.70;0.70;;;10.20;78.10;;;9.58;65.16;95805.56;5014519;28;20200;-36
2023/01/03 03:46:06;;;;;;;0.70;0.70;;;10.30;77.60;;;9.70;64.63;95798.19;5015178;28;20199;-36
2023/01/03 03:51:34;;;;;;;0.80;0.80;;;10.40;77.50;;;9.72;64.49;95808.53;5015009;28;20212;-36
2023/01/03 03:54:09;;;;;;;0.70;0.70;;;10.40;77.40;;;9.74;64.68;95801.28;5015159;28;20185;-36
2023/01/03 03:56:40;;;;;;;0.70;0.70;;;10.40;77.50;;;9.76;64.39;95794.09;5014416;28;20179;-37
2023/01/03 03:59:09;;;;;;;0.70;0.70;;;10.50;77.50;;;9.81;64.57;95796.22;5015115;28;20185;-37
2023/01/03 04:01:38;;;;;;;0.80;0.80;;;10.50;77.60;;;9.84;64.36;95795.88;5014226;28;20208;-36
2023/01/03 04:04:27;;;;;;;0.70;0.70;;;10.50;77.50;;;9.91;64.58;95802.94;5014586;28;20185;-36
2023/01/03 04:06:54;;;;;;;0.70;0.70;;;10.60;77.50;;;9.95;64.85;95811.28;5014300;28;20271;-36
2023/01/03 04:09:21;;;;;;;0.70;0.70;;;10.60;77.60;;;9.97;64.36;95813.75;5014746;28;20230;-36
2023/01/03 04:11:48;;;;;;;0.70;0.70;;;10.70;77.60;;;10.01;64.63;95813.25;5015061;28;20215;-36
2023/01/03 04:14:15;;;;;;;0.70;0.70;;;10.70;77.60;;;10.07;64.60;95812.59;5014984;28;20188;-36
2023/01/03 04:16:42;;;;;;;0.80;0.80;;;10.80;77.70;;;10.13;64.65;95820.75;5014898;28;20181;-36
2023/01/03 04:19:09;;;;;;;0.70;0.70;;;10.70;77.50;;;10.14;64.22;95825.81;5014898;28;20220;-36
2023/01/03 04:21:36;;;;;;;0.75;0.75;;;10.80;77.60;;;10.18;64.18;95839.41;5014705;28;20192;-36
2023/01/03 04:24:04;;;;;;;0.68;0.68;;;10.80;77.50;;;10.21;64.14;95841.72;5015607;28;20588;-36
2023/01/03 04:26:31;;;;;;;0.70;0.70;;;10.80;77.40;;;10.24;64.06;95849.25;5015037;28;20196;-36
2023/01/03 04:28:59;;;;;;;0.70;0.70;;;10.90;77.50;;;10.28;63.82;95849.72;5014753;28;20209;-36
2023/01/03 04:31:26;;;;;;;0.70;0.70;;;10.90;77.40;;;10.31;63.71;95855.47;5014639;28;20193;-36
2023/01/03 04:33:53;;;;;;;0.70;0.70;;;10.90;77.40;;;10.34;64.13;95863.00;5014794;28;20193;-36
2023/01/03 04:36:20;;;;;;;0.50;0.50;;;10.90;77.50;;;10.37;63.97;95852.19;5014786;28;20192;-36
2023/01/03 04:38:47;;;;;;;0.80;0.80;;;10.90;77.40;;;10.41;64.03;95864.00;5014999;28;20235;-36
2023/01/03 04:41:15;;;;;;;0.80;0.80;;;11.00;77.50;;;10.41;63.72;95871.88;5014438;28;20695;-39
2023/01/03 04:44:00;;;;;;;0.70;0.70;;;11.00;77.30;;;10.45;63.71;95871.53;5014926;28;20584;-36
2023/01/03 04:46:35;;;;;;;0.80;0.80;;;11.00;77.20;;;10.47;64.01;95875.63;5014661;28;20178;-39
2023/01/03 04:49:04;;;;;;;0.80;0.80;;;11.00;77.30;;;10.47;63.82;95870.38;5013697;28;20210;-43
2023/01/03 04:51:32;;;;;;;0.80;0.80;;;11.00;77.30;;;10.52;63.57;95867.25;5014419;28;20185;-38
2023/01/03 04:53:59;;;;;;;0.60;0.60;;;11.10;77.10;;;10.53;63.69;95868.91;5014829;28;20303;-41
2023/01/03 04:56:31;;;;;;;0.80;0.80;;;11.00;77.30;;;10.55;63.59;95864.31;5014571;28;20189;-39
2023/01/03 04:58:58;;;;;;;0.70;0.70;;;11.10;77.30;;;10.55;63.58;95870.38;5014775;28;20177;-45
2023/01/03 05:01:26;;;;;;;0.70;0.70;;;11.10;77.20;;;10.56;63.33;95869.38;5014822;28;20197;-46
2023/01/03 05:04:00;;;;;;;0.77;0.77;;;11.10;77.20;;;10.56;63.59;95866.75;5014567;28;20189;-39
2023/01/03 05:06:28;;;;;;;0.80;0.80;;;11.10;77.10;;;10.56;63.18;95873.81;5017923;28;20340;-39
2023/01/03 05:08:56;;;;;;;0.70;0.70;;;11.20;77.00;;;10.56;63.27;95874.63;5017894;28;20209;-42
2023/01/03 05:11:23;;;;;;;0.88;0.88;;;11.10;76.90;;;10.53;63.33;95869.72;5018033;28;20207;-39
2023/01/03 05:13:50;;;;;;;0.70;0.70;;;11.10;76.80;;;10.55;63.38;95869.56;5017872;28;20196;-42
2023/01/03 05:16:17;;;;;;;0.70;0.70;;;11.10;76.80;;;10.52;63.26;95869.88;5018076;28;20535;-39
2023/01/03 05:18:45;;;;;;;0.80;0.80;;;11.10;77.00;;;10.50;63.28;95871.88;5017744;28;20283;-42
2023/01/03 05:26:49;;;;;;;0.70;0.70;;;11.00;76.90;;;10.42;63.25;95877.94;5017612;28;20534;-40
2023/01/03 05:29:19;;;;;;;0.60;0.60;;;11.00;76.90;;;10.41;63.46;95879.75;5016625;28;20223;-41
2023/01/03 05:31:47;;;;;;;0.80;0.80;;;11.00;77.00;;;10.42;63.80;95888.41;5017952;28;20251;-40
2023/01/03 05:34:14;;;;;;;0.80;0.80;;;11.00;77.10;;;10.43;63.44;95892.69;5017749;28;20647;-39
2023/01/03 05:36:41;;;;;;;0.70;0.70;;;11.00;77.00;;;10.44;63.54;95883.84;5017350;28;20579;-40
2023/01/03 05:39:08;;;;;;;0.80;0.80;;;11.00;77.00;;;10.44;63.56;95883.03;5017595;28;20208;-39
2023/01/03 05:44:21;;;;;;;0.70;0.70;;;11.10;77.10;;;10.41;63.65;95895.47;5017399;28;20235;-42
2023/01/03 05:46:48;;;;;;;0.70;0.70;;;11.00;77.00;;;10.40;63.70;95893.84;5017179;28;20262;-40
2023/01/03 05:49:15;;;;;;;0.70;0.70;;;11.10;77.00;;;10.39;63.77;95905.31;5017177;28;20213;-42
2023/01/03 05:51:42;;;;;;;0.70;0.70;;;11.10;77.00;;;10.37;63.78;95907.28;5016991;28;20189;-42
2023/01/03 05:54:15;;;;;;;0.73;0.73;;;11.10;77.00;;;10.36;63.75;95905.66;5017184;28;20189;-46
2023/01/03 05:56:42;;;;;;;0.70;0.70;;;11.10;77.00;;;10.34;64.09;95906.75;5017243;28;20165;-39
2023/01/03 05:59:10;;;;;;;0.80;0.80;;;11.10;77.00;;;10.34;64.01;95899.72;5017246;28;20207;-39
2023/01/03 06:01:37;;;;;;;0.80;0.80;;;11.20;77.10;;;10.35;64.17;95911.84;5016792;28;20201;-39
2023/01/03 06:04:05;;;;;;;0.80;0.80;;;11.10;77.00;;;10.34;64.10;95917.25;5016850;28;20530;-39
2023/01/03 06:06:32;;;;;;;0.70;0.70;;;11.10;77.00;;;10.35;64.29;95911.84;5032450;28;20201;-39
2023/01/03 06:08:59;;;;;;;0.70;0.70;;;11.10;77.10;;;10.35;64.22;95918.88;5016768;28;20291;-39
2023/01/03 06:11:26;;;;;;;0.70;0.70;;;11.10;77.00;;;10.34;63.97;95906.75;5016706;28;20188;-39
2023/01/03 06:13:53;;;;;;;0.70;0.70;;;11.10;77.00;;;10.32;63.87;95906.91;5016706;28;20632;-39
2023/01/03 06:19:07;;;;;;;0.70;0.70;;;11.10;77.00;;;10.33;64.01;95919.06;5016906;28;20193;-39
2023/01/03 06:21:35;;;;;;;0.70;0.70;;;11.10;77.00;;;10.34;63.88;95907.59;5016448;28;20205;-39
2023/01/03 06:24:03;;;;;;;0.70;0.70;;;11.10;77.00;;;10.34;63.62;95912.00;5016854;28;20216;-39
2023/01/03 06:26:31;;;;;;;0.80;0.80;;;11.10;76.90;;;10.33;63.72;95911.19;5016682;28;20624;-39
2023/01/03 06:28:58;;;;;;;0.80;0.80;;;11.10;77.60;;;10.33;63.72;95921.69;5016370;28;20204;-39
2023/01/03 06:31:26;;;;;;;0.70;0.70;;;11.10;76.90;;;10.30;63.73;95922.03;5016244;28;20197;-39
2023/01/03 06:33:53;;;;;;;0.80;0.80;;;11.10;76.90;;;10.30;63.81;95926.44;5016338;28;20193;-42
2023/01/03 06:36:24;;;;;;;0.70;0.70;;;11.10;76.80;;;10.27;63.63;95926.78;5016506;28;20192;-39
2023/01/03 06:38:53;;;;;;;0.73;0.73;;;11.10;76.90;;;10.27;64.00;95938.06;5016820;28;20203;-39
2023/01/03 06:41:20;;;;;;;0.70;0.70;;;11.00;76.80;;;10.27;63.94;95939.88;5015921;28;20245;-45
2023/01/03 06:43:48;;;;;;;0.90;0.90;;;11.00;76.90;;;10.25;64.06;95943.50;5016217;28;20192;-39
2023/01/03 06:54:36;;;;;;;0.70;0.70;;;11.00;76.80;;;10.14;64.09;95954.28;5016105;28;20189;-39
2023/01/03 06:57:04;;;;;;;0.70;0.70;;;11.00;76.80;;;10.13;64.02;95950.03;5016055;28;20193;-40
2023/01/03 06:59:31;;;;;;;0.70;0.70;;;11.00;76.80;;;10.11;64.16;95957.25;5015864;28;20208;-41
2023/01/03 07:01:59;;;;;;;0.63;0.63;;;10.90;76.90;;;10.08;64.23;95960.19;5015695;28;20550;-39
2023/01/03 07:04:26;;;;;;;0.80;0.80;;;10.90;76.90;;;10.07;64.32;95955.91;5015836;28;20193;-39
2023/01/03 07:06:54;;;;;;;0.70;0.70;;;10.90;76.90;;;10.04;64.31;95959.69;5015771;28;20197;-39
2023/01/03 07:09:21;;;;;;;0.70;0.70;;;10.90;77.00;;;10.04;64.31;95967.53;5015671;28;20688;-36
2023/01/03 07:11:48;;;;;;;0.70;0.70;;;10.90;77.00;;;10.04;64.35;95970.16;5015688;28;20185;-43
2023/01/03 07:14:17;;;;;;;0.70;0.70;;;10.80;77.00;;;10.03;64.33;95973.78;5016393;28;20246;-39
2023/01/03 07:16:47;;;;;;;0.70;0.70;;;10.80;77.00;;;10.01;64.42;95969.66;5015631;28;20193;-39
2023/01/03 07:19:18;;;;;;;0.70;0.70;;;10.80;77.00;;;10.01;64.45;95980.16;5015554;28;20196;-38
2023/01/03 07:21:45;;;;;;;0.70;0.70;;;10.80;77.00;;;10.01;64.35;95990.63;5015602;28;20205;-39
2023/01/03 07:24:17;;;;;;;0.70;0.70;;;10.80;77.10;;;10.02;64.50;95990.50;5014673;28;20192;-45
2023/01/03 07:26:44;;;;;;;0.70;0.70;;;10.80;77.10;;;10.04;64.38;95980.66;5015821;28;20232;-38
2023/01/03 07:29:12;;;;;;;0.82;0.82;;;10.80;77.10;;;10.05;64.31;95982.28;5015202;28;20240;-48
2023/01/03 07:31:40;;;;;;;0.70;0.70;;;10.80;77.90;;;10.08;64.30;95984.59;5015344;28;20201;-44
2023/01/03 07:34:08;;;;;;;0.70;0.70;;;10.80;77.90;;;10.09;64.19;95994.13;5015664;28;20263;-47
2023/01/03 07:36:35;;;;;;;0.77;0.77;;;10.80;77.10;;;10.13;64.26;96001.63;5015765;28;20188;-40
2023/01/03 07:39:03;;;;;;;0.80;0.80;;;10.80;77.20;;;10.16;64.23;95996.09;5015374;28;20200;-37
2023/01/03 07:44:17;;;;;;;0.70;0.70;;;10.90;77.30;;;10.21;64.54;95989.34;5015290;28;20173;-49
2023/01/03 07:46:44;;;;;;;0.70;0.70;;;10.90;77.20;;;10.22;64.27;95990.19;5015432;28;20196;-37
2023/01/03 07:49:11;;;;;;;0.70;0.70;;;10.90;78.00;;;10.26;64.36;95999.34;5015115;28;20605;-37
2023/01/03 07:51:39;;;;;;;0.70;0.70;;;11.00;77.30;;;10.28;64.38;95999.19;5015146;28;20185;-39
2023/01/03 07:54:06;;;;;;;0.80;0.80;;;10.90;77.20;;;10.30;64.53;96002.47;5015502;28;20193;-40
2023/01/03 07:56:34;;;;;;;0.60;0.60;;;11.00;77.30;;;10.31;64.25;96009.38;5015121;28;20185;-37
2023/01/03 07:59:01;;;;;;;0.73;0.73;;;11.00;77.10;;;10.31;63.85;96007.56;5015142;28;20284;-37
2023/01/03 08:01:29;;;;;;;0.70;0.70;;;11.00;77.00;;;10.34;64.29;96009.03;5014017;28;20662;-37
2023/01/03 08:03:56;;;;;;;0.70;0.70;;;11.00;77.00;;;10.36;64.01;96012.31;5015432;28;20206;-38
2023/01/03 08:06:24;;;;;;;0.80;0.80;;;11.10;77.00;;;10.36;63.60;96018.44;5015034;28;20193;-37
2023/01/03 08:14:23;;;;;;;0.80;0.80;;;11.10;77.00;;;10.45;63.91;96021.88;5014922;28;20288;-37
2023/01/03 08:16:54;;;;;;;0.70;0.70;;;11.10;77.10;;;10.51;63.85;96029.06;5015204;28;20189;-42
2023/01/03 08:19:23;;;;;;;0.80;0.80;;;11.10;77.00;;;10.54;63.35;96030.56;5015268;28;20197;-40
2023/01/03 08:21:50;;;;;;;0.70;0.70;;;11.20;76.80;;;10.57;63.45;96033.66;5014822;28;20524;-40
2023/01/03 08:24:17;;;;;;;0.60;0.60;;;11.20;76.80;;;10.63;63.28;96034.00;5014906;28;20208;-35
2023/01/03 08:26:44;;;;;;;0.75;0.75;;;11.20;76.80;;;10.64;63.15;96033.81;5014880;28;20208;-34
2023/01/03 08:29:12;;;;;;;0.70;0.70;;;11.30;76.70;;;10.67;62.86;96027.44;5014884;28;20254;-35
2023/01/03 08:31:43;;;;;;;0.73;0.73;;;11.30;76.50;;;10.73;62.77;96034.66;5014621;28;20583;-38
2023/01/03 08:34:12;;;;;;;0.70;0.70;;;11.40;76.60;;;10.71;62.72;96028.75;5014211;28;20181;-40
2023/01/03 08:36:51;;;;;;;0.77;0.77;;;11.40;76.40;;;10.79;62.68;96030.53;5014783;28;20247;-38
2023/01/03 08:39:23;;;;;;;0.80;0.80;;;11.40;76.40;;;10.80;62.34;96029.56;5014304;28;20189;-40
2023/01/03 08:42:04;;;;;;;0.80;0.80;;;11.40;76.20;;;10.83;62.74;96040.53;5017558;28;20259;-37
2023/01/03 08:44:31;;;;;;;0.75;0.75;;;11.40;77.00;;;10.85;62.38;96043.84;5018491;28;20627;-37
2023/01/03 08:47:01;;;;;;;0.80;0.80;;;11.50;76.10;;;10.86;62.25;96049.88;5018384;28;20196;-39
2023/01/03 08:49:29;;;;;;;0.80;0.80;;;11.50;76.00;;;10.88;62.13;96053.19;5018661;28;20205;-43
2023/01/03 08:51:56;;;;;;;0.60;0.60;;;11.50;76.00;;;10.89;62.41;96055.63;5018210;28;20231;-46
2023/01/03 08:54:24;;;;;;;0.80;0.80;;;11.50;75.90;;;10.92;61.92;96056.28;5018223;28;20203;-37
2023/01/03 08:56:51;;;;;;;0.70;0.70;;;11.50;75.60;;;10.93;62.28;96050.06;5018196;28;20283;-37
2023/01/03 08:59:18;;;;;;;0.80;0.80;;;11.60;75.70;;;10.94;61.82;96056.97;5018468;28;20197;-44
2023/01/03 09:01:45;;;;;;;0.70;0.70;;;11.60;75.70;;;10.97;62.22;96061.84;5018061;28;20262;-39
2023/01/03 09:04:13;;;;;;;0.80;0.80;;;11.60;75.70;;;10.97;61.61;96057.41;5018204;28;20521;-36
2023/01/03 09:06:40;;;;;;;0.70;0.70;;;11.60;75.70;;;11.00;61.67;96066.78;5018023;28;20189;-37
2023/01/03 09:09:08;;;;;;;0.70;0.70;;;11.60;75.70;;;11.01;61.39;96060.53;5017876;28;20212;-40
2023/01/03 09:11:35;;;;;;;0.70;0.70;;;11.70;75.80;;;11.04;62.03;96065.47;5017802;28;20643;-42
2023/01/03 09:14:02;;;;;;;0.70;0.70;;;11.70;75.80;;;11.08;62.09;96066.75;5017808;28;20279;-36
2023/01/03 09:16:29;;;;;;;0.85;0.85;;;11.70;75.80;;;11.11;62.03;96069.06;5017991;28;20708;-50
2023/01/03 09:18:56;;;;;;;0.70;0.70;;;11.80;75.90;;;11.17;62.10;96067.59;5018041;28;20197;-36
2023/01/03 09:21:24;;;;;;;0.70;0.70;;;11.80;75.80;;;11.20;61.77;96067.25;5017552;28;20192;-36
2023/01/03 09:23:51;;;;;;;0.70;0.70;;;11.80;75.90;;;11.26;61.79;96068.41;5017757;28;20284;-42
2023/01/03 09:26:18;;;;;;;0.70;0.70;;;11.90;75.90;;;11.27;61.52;96068.22;5017642;28;20192;-36
2023/01/03 09:28:45;;;;;;;0.63;0.63;;;11.90;76.00;;;11.32;60.80;96065.09;5017636;28;20224;-36
2023/01/03 09:31:12;;;;;;;0.60;0.60;;;11.90;75.60;;;11.37;61.21;96068.03;5017725;28;20546;-37
2023/01/03 09:33:40;;;;;;;0.70;0.70;;;11.90;75.60;;;11.41;60.78;96071.94;5017621;28;20193;-36
2023/01/03 09:36:07;;;;;;;0.70;0.70;;;12.00;75.50;;;11.47;61.53;96073.09;5016439;28;20197;-39
2023/01/03 09:38:35;;;;;;;0.70;0.70;;;12.00;75.70;;;11.51;61.28;96072.59;5017308;28;20519;-40
2023/01/03 09:41:11;;;;;;;0.70;0.70;;;12.10;76.70;;;11.54;61.03;96074.88;5016422;28;20239;-36
2023/01/03 09:43:42;;;;;;;0.60;0.60;;;12.10;75.20;;;11.54;60.25;96077.50;5016784;28;20286;-39
2023/01/03 09:46:20;;;;;;;0.70;0.70;;;12.10;74.60;;;11.53;60.16;96080.31;5017644;28;20515;-36
2023/01/03 09:48:49;;;;;;;0.80;0.80;;;12.10;74.50;;;11.50;59.63;96075.41;5016463;28;20181;-39
2023/01/03 10:03:58;;;;;;;0.70;0.70;;;12.00;73.90;;;11.47;59.19;96073.09;5026447;28;20543;-45
2023/01/03 10:07:01;;;;;;;0.70;0.70;;;12.00;73.80;;;11.52;59.99;96073.41;5025196;28;20249;-36
2023/01/03 10:10:04;;;;;;;0.70;0.70;;;12.00;74.40;;;11.58;58.82;96061.41;5020276;28;20565;-42
2023/01/03 10:12:55;;;;;;;0.80;0.80;;;12.10;73.80;;;11.62;59.26;96068.78;5016795;28;20616;-40
2023/01/03 10:15:41;;;;;;;0.70;0.70;;;12.10;73.90;;;11.69;59.66;96063.66;5017294;28;20196;-36
2023/01/03 10:18:46;;;;;;;0.60;0.60;;;12.10;74.10;;;11.79;59.36;96063.44;5017155;28;20181;-40
2023/01/03 10:21:42;;;;;;;0.70;0.70;;;12.20;75.00;;;11.87;58.53;96070.50;5019856;28;20261;-36
2023/01/03 10:24:19;;;;;;;0.70;0.70;;;12.30;72.60;;;11.91;58.74;96064.72;5028365;28;20203;-36
2023/01/03 10:27:18;;;;;;;0.70;0.70;;;12.30;73.90;;;11.94;58.39;96060.94;5036594;28;20188;-36
2023/01/03 10:29:47;;;;;;;0.70;0.70;;;12.40;73.40;;;11.95;57.32;96062.56;5029479;28;20644;-45
2023/01/03 10:32:48;;;;;;;0.70;0.70;;;12.40;73.80;;;11.92;57.28;96061.09;5016084;28;20201;-42
2023/01/03 10:35:23;;;;;;;0.60;0.60;;;12.40;72.20;;;11.89;56.91;96060.63;5014907;28;20187;-38
2023/01/03 10:37:53;;;;;;;0.70;0.70;;;12.40;72.00;;;11.85;57.67;96050.47;5016580;28;20176;-36
2023/01/03 10:40:36;;;;;;;0.70;0.70;;;12.30;72.80;;;11.79;57.32;96045.88;5013333;28;20312;-36
2023/01/03 10:43:15;;;;;;;0.70;0.70;;;12.30;72.60;;;11.80;57.76;96050.16;5015274;28;20185;-36
2023/01/03 10:46:14;;;;;;;0.73;0.73;;;12.30;72.30;;;11.78;57.79;96040.78;5016470;28;20263;-36
2023/01/03 10:48:47;;;;;;;0.70;0.70;;;12.20;72.50;;;11.77;57.29;96042.59;5016390;28;20197;-37
2023/01/03 10:51:48;;;;;;;0.90;0.90;;;12.20;72.70;;;11.83;57.92;96041.91;5015956;28;20314;-36
2023/01/03 10:54:18;;;;;;;0.70;0.70;;;12.20;73.50;;;11.89;57.17;96032.53;5015243;28;20212;-36
2023/01/03 10:56:47;;;;;;;0.70;0.70;;;12.30;73.00;;;11.94;57.83;96037.28;5015276;28;20181;-36
2023/01/03 10:59:14;;;;;;;0.70;0.70;;;12.40;73.20;;;12.03;57.91;96035.47;5015893;28;20208;-38
2023/01/03 11:02:01;;;;;;;0.70;0.70;;;12.40;73.40;;;12.06;57.34;96033.31;5015500;28;20206;-38
2023/01/03 11:04:31;;;;;;;0.70;0.70;;;12.40;72.60;;;12.09;56.91;96025.03;5015705;28;20181;-37
2023/01/03 11:07:12;;;;;;;0.73;0.73;;;12.50;72.60;;;12.09;56.90;96025.03;5015037;28;20628;-37
2023/01/03 11:09:56;;;;;;;0.70;0.70;;;12.50;72.50;;;12.13;57.04;96020.25;5015726;28;20605;-38
2023/01/03 11:12:37;;;;;;;0.70;0.70;;;12.50;72.60;;;12.16;56.58;96026.00;5015788;28;20263;-37
2023/01/03 11:15:31;;;;;;;0.60;0.60;;;12.60;72.00;;;12.19;56.39;96034.53;5015747;28;20187;-37
2023/01/03 11:18:16;;;;;;;0.70;0.70;;;12.60;72.10;;;12.24;56.58;96029.56;5016938;28;20240;-36
2023/01/03 11:21:11;;;;;;;0.70;0.70;;;12.60;72.20;;;12.30;57.33;96027.06;5014756;28;20185;-37
2023/01/03 11:24:26;;;;;;;0.70;0.70;;;12.70;72.80;;;12.33;56.59;96028.53;5015383;28;20268;-38
2023/01/03 11:27:18;;;;;;;0.70;0.70;;;12.70;71.80;;;12.34;56.09;96035.44;5017156;28;20239;-40
2023/01/03 11:30:13;;;;;;;0.80;0.80;;;12.80;71.60;;;12.33;55.47;96031.16;5033559;28;20188;-36
2023/01/03 11:32:57;;;;;;;0.80;0.80;;;12.80;71.00;;;12.30;55.69;96027.06;5013775;28;20287;-36
2023/01/03 11:36:11;;;;;;;0.70;0.70;;;12.80;71.90;;;12.21;55.75;96030.72;5015366;28;20620;-36
2023/01/03 11:39:10;;;;;;;0.80;0.80;;;12.80;71.30;;;12.14;56.11;96035.06;5015322;28;20196;-36
2023/01/03 11:42:07;;;;;;;0.70;0.70;;;12.70;71.50;;;12.09;55.84;96037.38;5014343;28;20236;-36
2023/01/03 11:44:59;;;;;;;0.70;0.70;;;12.70;71.10;;;12.03;55.90;96036.25;5015293;28;20185;-36
2023/01/03 11:48:00;;;;;;;0.75;0.75;;;12.60;71.10;;;11.98;56.59;96035.97;5015269;28;20600;-37
2023/01/03 11:51:05;;;;;;;0.70;0.70;;;12.60;71.20;;;11.92;55.92;96028.75;5015099;28;20223;-36
2023/01/03 11:54:28;;;;;;;0.80;0.80;;;12.50;70.90;;;11.91;56.76;96032.34;5015087;28;20265;-36
2023/01/03 11:57:03;;;;;;;0.70;0.70;;;12.50;71.60;;;11.97;57.09;96021.19;5015107;28;20200;-36
2023/01/03 11:59:42;;;;;;;0.68;0.68;;;12.50;71.90;;;12.06;57.39;96020.16;5015182;28;20187;-36
2023/01/03 12:02:48;;;;;;;0.70;0.70;;;12.60;72.30;;;12.19;57.33;96016.13;5014873;28;20177;-36
2023/01/03 12:05:58;;;;;;;0.70;0.70;;;12.70;72.40;;;12.24;56.43;96008.53;5015527;28;20181;-36
2023/01/03 12:08:39;;;;;;;0.80;0.80;;;12.70;71.40;;;12.30;56.38;96020.97;5015080;28;20181;-36